aviador You're here:

KJES Decoded Metar

in
Report Time2017-11-20 05:42:00
UTC Time2017-11-20 05:47:04
Flight Rules vfr VFR
WindCalm
Visibility9999 m
Phenomena:N/A
Clouds:N/A
Expected CloudBase > 2,400 ft AGL from Temp-Dew spread
CeilingNone
Temp07°C
Dew Point01°C (66% RH)
AAT5.2°C
QNH1020 hPa
Raw Report
METAR KJES 200542Z AUTO 00000KT 10SM CLR 07/01 A3013 RMK AO2=

Extra information for KJES:More info

Social comments